Time;durP1;ratioP1;P1;durP2;ratioP2;P2;SDS_P1;SDS_P2;PMS_P1;PMS_P2;Temp;Humidity;BMP_temperature;BMP_pressure;BME280_temperature;BME280_humidity;BME280_pressure;Samples;Min_cycle;Max_cycle;Signal;HPM_P1;HPM_P2
2022/05/12 00:02:25;;;;;;;;;3.00;3.00;;;;;23.50;41.55;101218.03;5076527;28;45412;-58
2022/05/12 00:04:50;;;;;;;;;1.00;1.00;;;;;23.47;41.70;101217.25;5077099;28;45432;-58
2022/05/12 00:07:16;;;;;;;;;3.75;3.00;;;;;23.49;41.47;101216.31;5077074;28;45334;-58
2022/05/12 00:09:41;;;;;;;;;1.75;1.75;;;;;23.49;41.34;101221.63;5076829;27;45354;-58
2022/05/12 00:12:07;;;;;;;;;3.00;3.00;;;;;23.48;41.46;101218.13;5076914;27;45378;-58
2022/05/12 00:14:33;;;;;;;;;2.50;2.50;;;;;23.49;41.14;101218.97;5076837;27;45268;-58
2022/05/12 00:16:58;;;;;;;;;2.25;2.00;;;;;23.49;41.36;101221.63;5076709;27;45371;-58
2022/05/12 00:19:28;;;;;;;;;2.00;2.00;;;;;23.49;41.37;101226.91;5076577;28;45291;-57
2022/05/12 00:21:56;;;;;;;;;2.50;1.75;;;;;23.49;41.43;101232.19;5076771;27;45469;-58
2022/05/12 00:24:22;;;;;;;;;3.00;3.00;;;;;23.49;41.53;101230.38;5076881;28;45298;-57
2022/05/12 00:26:48;;;;;;;;;3.50;3.50;;;;;23.49;41.59;101233.03;5076810;27;46172;-58
2022/05/12 00:29:13;;;;;;;;;2.00;2.00;;;;;23.49;41.59;101240.13;5075562;27;45428;-58
2022/05/12 00:31:40;;;;;;;;;7.00;3.75;;;;;23.49;41.75;101248.06;5076792;27;45224;-58
2022/05/12 00:34:08;;;;;;;;;5.50;3.25;;;;;23.47;41.57;101235.78;5075406;28;45532;-58
2022/05/12 00:36:35;;;;;;;;;4.25;2.00;;;;;23.48;41.66;101236.66;5075480;27;46293;-58
2022/05/12 00:39:00;;;;;;;;;5.25;3.00;;;;;23.46;41.33;101239.38;5076551;27;45901;-58
2022/05/12 00:41:26;;;;;;;;;2.00;2.00;;;;;23.48;41.28;101252.53;5076539;27;45436;-58
2022/05/12 00:43:55;;;;;;;;;5.25;3.00;;;;;23.47;41.27;101250.81;5076729;27;45351;-57
2022/05/12 00:46:26;;;;;;;;;2.25;2.25;;;;;23.47;41.61;101262.22;5076240;27;46644;-58
2022/05/12 00:48:56;;;;;;;;;3.00;2.00;;;;;23.46;41.25;101255.25;5075030;28;45858;-57
2022/05/12 00:51:35;;;;;;;;;5.00;3.25;;;;;23.46;41.04;101255.25;5076560;27;45278;-58
2022/05/12 00:54:04;;;;;;;;;3.75;2.50;;;;;23.46;41.75;101263.19;5076583;27;45243;-57
2022/05/12 00:56:31;;;;;;;;;3.50;2.00;;;;;23.46;41.63;101265.81;5076269;27;45404;-57
2022/05/12 00:59:00;;;;;;;;;2.50;2.50;;;;;23.46;41.56;101271.13;5076308;27;45490;-58
2022/05/12 01:01:27;;;;;;;;;3.50;2.25;;;;;23.46;41.32;101265.00;5076336;27;45427;-58
2022/05/12 01:03:53;;;;;;;;;5.50;2.25;;;;;23.45;41.67;101274.69;5076365;27;45590;-57
2022/05/12 01:06:18;;;;;;;;;2.00;2.00;;;;;23.47;41.27;101271.97;5076365;27;45319;-58
2022/05/12 01:08:45;;;;;;;;;3.00;3.00;;;;;23.44;40.99;101270.34;5076055;27;45188;-58
2022/05/12 01:11:15;;;;;;;;;3.00;3.00;;;;;23.45;41.42;101266.75;5076155;27;45310;-58
2022/05/12 01:13:43;;;;;;;;;3.50;2.00;;;;;23.43;41.17;101271.28;5077763;27;45804;-58
2022/05/12 01:16:08;;;;;;;;;3.00;3.00;;;;;23.45;41.19;101274.69;5079349;27;46550;-58
2022/05/12 01:18:39;;;;;;;;;2.00;2.00;;;;;23.44;40.98;101273.00;5079019;27;45351;-58
2022/05/12 01:21:05;;;;;;;;;2.75;2.75;;;;;23.44;41.26;101280.94;5079626;27;45313;-57
2022/05/12 01:23:36;;;;;;;;;3.50;3.50;;;;;23.45;41.22;101285.28;5079724;27;45373;-57
2022/05/12 01:26:09;;;;;;;;;3.00;2.00;;;;;23.44;41.56;101282.75;5079342;27;47216;-58
2022/05/12 01:28:36;;;;;;;;;2.25;1.00;;;;;23.44;41.19;101285.38;5079405;28;45344;-57
2022/05/12 01:31:03;;;;;;;;;2.00;2.00;;;;;23.42;41.33;101287.28;5079418;27;45307;-58
2022/05/12 01:33:29;;;;;;;;;3.00;3.00;;;;;23.43;41.30;101289.81;5079390;27;45303;-57
2022/05/12 01:35:54;;;;;;;;;4.00;3.00;;;;;23.43;41.13;101281.88;5079048;27;46066;-58
2022/05/12 01:38:20;;;;;;;;;4.00;4.00;;;;;23.43;41.38;101292.47;5079410;28;45451;-58
2022/05/12 01:40:46;;;;;;;;;4.50;2.25;;;;;23.42;41.20;101290.78;5079209;27;45296;-58
2022/05/12 01:43:13;;;;;;;;;4.25;2.75;;;;;23.43;41.42;101292.47;5079345;27;45330;-58
2022/05/12 01:45:38;;;;;;;;;2.50;2.50;;;;;23.43;41.21;101303.03;5078927;27;46175;-58
2022/05/12 01:48:06;;;;;;;;;3.75;2.75;;;;;23.42;41.36;101306.66;5077719;28;45240;-58
2022/05/12 01:50:32;;;;;;;;;4.25;2.75;;;;;23.42;40.98;101301.38;5079018;27;45373;-57
2022/05/12 01:52:57;;;;;;;;;5.00;3.00;;;;;23.42;41.47;101306.66;5079104;28;45491;-57
2022/05/12 01:55:26;;;;;;;;;4.50;3.25;;;;;23.41;40.93;101312.88;5078637;28;46084;-57
2022/05/12 01:57:52;;;;;;;;;2.75;2.75;;;;;23.42;40.95;101316.38;5079156;27;45399;-57
2022/05/12 02:00:22;;;;;;;;;2.25;2.25;;;;;23.38;41.20;101305.13;5079286;27;45370;-57
2022/05/12 02:02:49;;;;;;;;;2.50;2.25;;;;;23.40;41.27;101319.13;5079648;27;45278;-58
2022/05/12 02:05:14;;;;;;;;;4.00;4.00;;;;;23.41;40.90;101319.94;5078562;28;45719;-57
2022/05/12 02:07:41;;;;;;;;;6.00;4.25;;;;;23.39;41.15;101321.84;5078650;28;45339;-58
2022/05/12 02:10:10;;;;;;;;;3.00;3.00;;;;;23.40;41.27;101324.41;5078678;27;45340;-57
2022/05/12 02:12:35;;;;;;;;;4.00;3.00;;;;;23.39;41.17;101329.78;5078787;27;45539;-58
2022/05/12 02:15:01;;;;;;;;;7.25;4.75;;;;;23.40;40.79;101327.06;5078033;28;51786;-58
2022/05/12 02:17:26;;;;;;;;;3.00;3.00;;;;;23.40;41.22;101332.34;5078481;27;45311;-58
2022/05/12 02:19:51;;;;;;;;;4.75;4.00;;;;;23.39;41.12;101335.94;5078878;28;45306;-57
2022/05/12 02:22:18;;;;;;;;;3.00;2.50;;;;;23.38;40.72;101334.22;5078764;28;45357;-57
2022/05/12 02:24:43;;;;;;;;;2.75;2.75;;;;;23.38;41.42;101336.88;5078116;28;47173;-57
2022/05/12 02:27:09;;;;;;;;;3.00;3.00;;;;;23.38;41.01;101347.44;5078425;27;45454;-58
2022/05/12 02:29:34;;;;;;;;;2.50;2.00;;;;;23.38;41.03;101347.44;5078603;28;45437;-58
2022/05/12 02:31:59;;;;;;;;;4.50;3.00;;;;;23.38;40.82;101350.09;5078086;27;45663;-58
2022/05/12 02:34:25;;;;;;;;;4.50;3.25;;;;;23.36;40.97;101346.69;5076834;28;46077;-57
2022/05/12 02:37:02;;;;;;;;;5.00;4.25;;;;;23.37;40.95;101361.63;5078545;27;45326;-58
2022/05/12 02:39:30;;;;;;;;;3.25;3.00;;;;;23.37;40.88;101360.78;5078469;27;45223;-57
2022/05/12 02:41:55;;;;;;;;;3.25;3.25;;;;;23.36;40.77;101359.06;5078483;27;45521;-58
2022/05/12 02:44:21;;;;;;;;;4.75;4.00;;;;;23.36;40.73;101359.06;5078418;27;46219;-58
2022/05/12 02:46:46;;;;;;;;;2.00;2.00;;;;;23.36;40.69;101364.34;5078125;28;45422;-57
2022/05/12 02:49:12;;;;;;;;;3.00;3.00;;;;;23.36;40.34;101367.84;5078209;27;45390;-57
2022/05/12 02:51:37;;;;;;;;;4.25;2.75;;;;;23.35;40.43;101367.94;5078260;27;45524;-57
2022/05/12 02:54:03;;;;;;;;;3.00;3.00;;;;;23.35;40.46;101368.78;5077722;28;45447;-58
2022/05/12 02:56:28;;;;;;;;;2.00;2.00;;;;;23.35;40.72;101367.94;5077978;28;45776;-57
2022/05/12 02:58:54;;;;;;;;;3.75;3.75;;;;;23.35;40.40;101366.13;5078239;28;45285;-58
2022/05/12 03:01:19;;;;;;;;;2.00;2.00;;;;;23.34;40.26;101372.38;5078160;28;45322;-58
2022/05/12 03:03:45;;;;;;;;;5.00;4.00;;;;;23.34;40.29;101371.53;5077677;27;45400;-58
2022/05/12 03:06:11;;;;;;;;;3.75;3.00;;;;;23.34;39.95;101380.31;5077570;28;45514;-58
2022/05/12 03:08:37;;;;;;;;;1.50;1.50;;;;;23.33;40.33;101386.53;5077994;28;45424;-58
2022/05/12 03:11:04;;;;;;;;;2.50;2.50;;;;;23.34;40.02;101390.03;5077948;27;45386;-57
2022/05/12 03:13:31;;;;;;;;;2.00;2.00;;;;;23.33;39.87;101385.69;5077320;27;46154;-57
2022/05/12 03:15:57;;;;;;;;;3.25;3.00;;;;;23.32;39.91;101390.13;5077853;28;45713;-57
2022/05/12 03:18:22;;;;;;;;;1.75;1.75;;;;;23.30;39.45;101384.09;5077981;27;45432;-58
2022/05/12 03:20:48;;;;;;;;;3.00;3.00;;;;;23.32;39.91;101390.13;5077783;28;45350;-58
2022/05/12 03:23:14;;;;;;;;;2.75;2.75;;;;;23.31;40.02;101389.28;5077381;28;46250;-58
2022/05/12 03:25:41;;;;;;;;;3.25;2.00;;;;;23.31;39.77;101383.16;5077399;27;45370;-58
2022/05/12 03:28:06;;;;;;;;;2.50;2.50;;;;;23.31;40.02;101381.34;5077611;27;45444;-58
2022/05/12 03:30:31;;;;;;;;;2.00;2.00;;;;;23.30;39.59;101389.38;5077695;27;45464;-58
2022/05/12 03:32:57;;;;;;;;;4.00;3.25;;;;;23.28;39.58;101389.44;5077425;28;45361;-58
2022/05/12 03:35:23;;;;;;;;;4.00;4.00;;;;;23.29;39.66;101395.59;5076878;28;46054;-58
2022/05/12 03:37:49;;;;;;;;;3.00;2.25;;;;;23.30;39.56;101386.72;5076944;27;45231;-58
2022/05/12 03:40:17;;;;;;;;;2.25;2.00;;;;;23.31;39.85;101396.38;5077482;28;45509;-58
2022/05/12 03:42:43;;;;;;;;;2.00;2.00;;;;;23.29;39.63;101391.16;5077127;27;46634;-58
2022/05/12 03:45:09;;;;;;;;;1.50;1.50;;;;;23.30;39.85;101389.38;5077019;28;45467;-58
2022/05/12 03:47:36;;;;;;;;;2.75;2.75;;;;;23.29;39.28;101391.16;5077338;28;45535;-58
2022/05/12 03:50:07;;;;;;;;;3.00;2.00;;;;;23.29;39.81;101398.25;5077464;27;45548;-58
2022/05/12 03:52:32;;;;;;;;;2.50;2.00;;;;;23.28;39.55;101393.91;5075745;28;46920;-57
2022/05/12 03:54:58;;;;;;;;;2.25;1.00;;;;;23.26;39.80;101393.97;5077427;28;45344;-58
2022/05/12 03:57:26;;;;;;;;;3.00;2.00;;;;;23.27;39.66;101386.91;5076402;28;45345;-58
2022/05/12 03:59:52;;;;;;;;;1.00;1.00;;;;;23.28;39.60;101391.25;5077597;27;45488;-58
2022/05/12 04:02:19;;;;;;;;;3.25;1.00;;;;;23.26;39.44;101387.84;5076956;27;45474;-57
2022/05/12 04:04:46;;;;;;;;;1.00;1.00;;;;;23.27;39.57;101392.19;5077032;27;45669;-58
2022/05/12 04:07:14;;;;;;;;;3.50;1.25;;;;;23.27;39.16;101397.47;5077089;27;45239;-58
2022/05/12 04:09:40;;;;;;;;;2.00;2.00;;;;;23.26;39.26;101401.06;5077180;27;45321;-58
2022/05/12 04:12:09;;;;;;;;;1.50;1.50;;;;;23.26;39.58;101399.25;5076703;28;46059;-58
2022/05/12 04:14:34;;;;;;;;;1.50;1.50;;;;;23.26;39.49;101401.06;5076587;27;45480;-58
2022/05/12 04:16:59;;;;;;;;;2.50;2.00;;;;;23.26;39.19;101406.34;5076880;28;45192;-57
2022/05/12 04:19:25;;;;;;;;;2.00;1.75;;;;;23.27;39.27;101410.69;5076917;28;45563;-57
2022/05/12 04:21:52;;;;;;;;;2.00;2.00;;;;;23.25;39.33;101409.94;5076576;27;45235;-58
2022/05/12 04:24:18;;;;;;;;;1.00;1.00;;;;;23.24;39.16;101419.69;5076567;28;45325;-57
2022/05/12 04:26:44;;;;;;;;;2.25;2.25;;;;;23.25;39.38;101421.38;5076626;27;45374;-57
2022/05/12 04:29:09;;;;;;;;;1.00;1.00;;;;;23.26;39.30;101422.22;5075464;28;45573;-56
2022/05/12 04:31:34;;;;;;;;;2.75;2.00;;;;;23.26;39.42;101414.28;5076120;28;50504;-57
2022/05/12 04:36:43;;;;;;;;;2.75;1.75;;;;;23.25;39.19;101426.66;5076446;28;45440;-57
2022/05/12 04:39:09;;;;;;;;;1.00;1.00;;;;;23.25;39.16;101425.81;5076682;27;45312;-56
2022/05/12 04:41:35;;;;;;;;;4.00;1.50;;;;;23.25;39.38;101425.81;5074924;28;46446;-57
2022/05/12 04:44:01;;;;;;;;;3.00;2.00;;;;;23.23;39.41;101428.53;5076753;27;45765;-57
2022/05/12 04:46:28;;;;;;;;;2.00;2.00;;;;;23.24;39.11;101427.59;5075615;28;45314;-57
2022/05/12 04:48:54;;;;;;;;;1.00;1.00;;;;;23.24;38.81;101437.31;5078800;27;45162;-58
2022/05/12 04:51:20;;;;;;;;;1.00;1.00;;;;;23.23;39.22;101438.25;5079734;27;45969;-59
2022/05/12 04:53:46;;;;;;;;;3.00;3.00;;;;;23.20;38.99;101438.44;5079783;27;45349;-58
2022/05/12 04:56:12;;;;;;;;;3.25;2.00;;;;;23.17;38.79;101442.94;5079973;27;45318;-57
2022/05/12 04:58:37;;;;;;;;;5.50;1.50;;;;;23.16;39.38;101443.88;5080156;27;45210;-58
2022/05/12 05:01:03;;;;;;;;;2.50;1.50;;;;;23.15;39.39;101441.34;5079553;27;45362;-57
2022/05/12 05:03:28;;;;;;;;;5.00;2.00;;;;;23.13;39.34;101449.34;5079817;28;45445;-58
2022/05/12 05:05:54;;;;;;;;;3.50;3.50;;;;;23.11;39.09;101445.06;5078546;28;45365;-58
2022/05/12 05:08:21;;;;;;;;;5.50;2.00;;;;;23.10;39.35;101446.84;5079819;28;45352;-58
2022/05/12 05:10:48;;;;;;;;;3.25;3.00;;;;;23.09;39.18;101446.94;5079572;27;45899;-58
2022/05/12 05:13:14;;;;;;;;;4.00;2.00;;;;;23.06;39.26;101444.47;5079463;27;45266;-58
2022/05/12 05:15:39;;;;;;;;;3.00;2.25;;;;;23.05;39.29;101441.00;5079534;27;45274;-57
2022/05/12 05:18:05;;;;;;;;;3.00;2.00;;;;;23.03;39.19;101453.44;5078650;28;45505;-57
2022/05/12 05:20:31;;;;;;;;;3.75;3.00;;;;;22.96;39.15;101454.72;5079286;27;45393;-57
2022/05/12 05:22:57;;;;;;;;;7.50;4.00;;;;;22.87;39.09;101447.31;5079390;27;45650;-57
2022/05/12 05:25:22;;;;;;;;;6.00;3.25;;;;;22.79;38.87;101453.88;5079648;27;45242;-57
2022/05/12 05:27:50;;;;;;;;;3.25;3.00;;;;;22.70;38.79;101457.03;5079706;27;45343;-57
2022/05/12 05:30:21;;;;;;;;;3.00;2.25;;;;;22.68;38.98;101469.47;5079294;27;46556;-58
2022/05/12 05:32:46;;;;;;;;;3.50;2.75;;;;;22.59;38.84;101476.13;5079127;27;45349;-58
2022/05/12 05:35:14;;;;;;;;;5.00;2.00;;;;;22.51;39.10;101484.44;5079307;27;45310;-58
2022/05/12 05:37:42;;;;;;;;;2.00;1.75;;;;;22.46;39.29;101485.63;5079411;27;45277;-58
2022/05/12 05:40:13;;;;;;;;;2.50;2.50;;;;;22.39;39.08;101483.25;5079106;27;46504;-57
2022/05/12 05:42:39;;;;;;;;;3.00;3.00;;;;;22.36;39.42;101490.50;5079142;27;45661;-58
2022/05/12 05:45:10;;;;;;;;;5.00;2.75;;;;;22.31;39.36;101488.09;5079346;27;45493;-57
2022/05/12 05:47:37;;;;;;;;;2.00;2.00;;;;;22.28;39.54;101497.97;5079289;27;45531;-57
2022/05/12 05:50:03;;;;;;;;;4.00;3.00;;;;;22.24;39.39;101495.50;5079423;27;46070;-57
2022/05/12 05:55:13;;;;;;;;;4.00;3.00;;;;;22.14;39.44;101507.47;5079133;28;45400;-60
2022/05/12 05:57:38;;;;;;;;;4.00;3.00;;;;;22.09;39.42;101512.97;5079118;27;45545;-57
2022/05/12 06:00:06;;;;;;;;;3.00;3.00;;;;;22.03;39.49;101518.59;5078290;28;45464;-58
2022/05/12 06:02:33;;;;;;;;;4.25;3.25;;;;;21.98;39.77;101519.75;5079123;27;45739;-60
2022/05/12 06:04:58;;;;;;;;;3.00;3.00;;;;;21.94;39.68;101521.66;5078906;27;45299;-60
2022/05/12 06:07:23;;;;;;;;;5.25;3.50;;;;;21.95;39.80;101533.09;5078952;27;45362;-57
2022/05/12 06:09:49;;;;;;;;;3.00;3.00;;;;;21.90;39.92;101536.81;5078480;28;45259;-58
2022/05/12 06:12:15;;;;;;;;;3.00;3.00;;;;;21.87;39.94;101539.63;5077197;28;45233;-58
2022/05/12 06:14:40;;;;;;;;;4.00;4.00;;;;;21.84;39.61;101536.25;5078696;27;45267;-58
2022/05/12 06:17:06;;;;;;;;;3.75;3.25;;;;;21.81;39.83;101553.09;5078847;28;45529;-58
2022/05/12 06:19:32;;;;;;;;;4.00;3.00;;;;;21.83;39.93;101551.25;5078706;27;46125;-58
2022/05/12 06:21:57;;;;;;;;;4.00;3.00;;;;;21.85;39.95;101559.97;5078477;27;45335;-58
2022/05/12 06:24:23;;;;;;;;;4.25;4.00;;;;;21.86;39.87;101559.03;5078552;28;45638;-58
2022/05/12 06:26:48;;;;;;;;;4.00;2.00;;;;;21.85;40.01;101552.03;5078556;27;45468;-58
2022/05/12 06:29:13;;;;;;;;;4.00;4.00;;;;;21.81;39.73;101561.03;5078408;27;45470;-57
2022/05/12 06:31:41;;;;;;;;;4.25;3.00;;;;;21.80;39.61;101558.47;5078294;28;45416;-57
2022/05/12 06:34:06;;;;;;;;;6.75;3.25;;;;;21.76;39.57;101555.13;5078701;27;45370;-58
2022/05/12 06:36:31;;;;;;;;;2.75;2.00;;;;;21.75;39.56;101559.53;5077455;28;45278;-58
2022/05/12 06:38:57;;;;;;;;;4.00;4.00;;;;;21.75;39.73;101561.34;5078042;27;47649;-58
2022/05/12 06:41:24;;;;;;;;;3.75;2.00;;;;;21.73;39.73;101555.28;5078147;28;45307;-57
2022/05/12 06:43:50;;;;;;;;;5.75;3.00;;;;;21.74;39.64;101564.91;5078226;27;45282;-57
2022/05/12 06:46:18;;;;;;;;;5.00;3.25;;;;;21.74;39.55;101562.28;5078395;27;45512;-57
2022/05/12 06:48:45;;;;;;;;;3.75;1.75;;;;;21.69;39.27;101564.25;5078062;27;46523;-57
2022/05/12 06:51:11;;;;;;;;;3.00;3.00;;;;;21.67;39.11;101571.38;5076726;28;45667;-57
2022/05/12 06:53:37;;;;;;;;;3.00;3.00;;;;;21.65;39.28;101568.00;5078458;28;45357;-58
2022/05/12 06:56:02;;;;;;;;;2.75;2.75;;;;;21.65;38.92;101570.63;5078692;28;45509;-58
2022/05/12 06:58:28;;;;;;;;;4.50;3.00;;;;;21.62;39.15;101564.56;5077915;28;45485;-57
2022/05/12 07:00:53;;;;;;;;;5.00;3.25;;;;;21.60;39.01;101566.44;5077787;28;45354;-57
2022/05/12 07:03:19;;;;;;;;;6.50;3.00;;;;;21.60;39.32;101565.59;5078058;27;45267;-57
2022/05/12 07:05:45;;;;;;;;;4.00;2.25;;;;;21.61;39.68;101568.13;5078065;28;45215;-58
2022/05/12 07:08:10;;;;;;;;;4.00;4.00;;;;;21.64;38.94;101566.28;5077725;28;46058;-58
2022/05/12 07:10:36;;;;;;;;;3.50;3.25;;;;;21.66;38.89;101567.06;5077010;27;45237;-57
2022/05/12 07:13:02;;;;;;;;;4.75;2.50;;;;;21.66;39.06;101567.06;5077466;28;48785;-58
2022/05/12 07:15:28;;;;;;;;;4.50;4.00;;;;;21.65;38.80;101560.09;5077946;27;45613;-57
2022/05/12 07:17:55;;;;;;;;;6.50;3.00;;;;;21.65;38.47;101562.72;5076866;27;45410;-57
2022/05/12 07:28:36;;;;;;;;;4.25;4.00;;;;;21.65;38.36;101568.84;5077785;28;45408;-56
2022/05/12 07:31:03;;;;;;;;;3.00;3.00;;;;;21.67;38.35;101560.84;5077321;27;45671;-56
2022/05/12 07:33:33;;;;;;;;;3.00;3.00;;;;;21.66;38.25;101565.28;5077515;27;45398;-56
2022/05/12 07:36:00;;;;;;;;;3.00;2.75;;;;;21.66;38.21;101569.72;5077519;27;45602;-56
2022/05/12 07:38:25;;;;;;;;;3.25;2.50;;;;;21.64;37.92;101566.28;5077361;27;46205;-56
2022/05/12 07:40:51;;;;;;;;;3.00;3.00;;;;;21.65;38.35;101565.34;5077159;27;45411;-56
2022/05/12 07:43:17;;;;;;;;;3.00;2.25;;;;;21.65;37.96;101562.72;5077211;27;45425;-56
2022/05/12 07:45:42;;;;;;;;;3.00;2.75;;;;;21.67;38.20;101566.13;5077476;27;45497;-56
2022/05/12 07:48:08;;;;;;;;;4.25;2.00;;;;;21.68;38.18;101563.41;5075983;28;47862;-52
2022/05/12 07:50:33;;;;;;;;;5.00;2.75;;;;;21.71;37.99;101562.41;5077136;27;45322;-52
2022/05/12 07:52:58;;;;;;;;;4.00;4.00;;;;;21.73;38.42;101565.84;5076522;28;53059;-56
2022/05/12 07:55:24;;;;;;;;;2.50;2.00;;;;;21.75;38.43;101563.97;5077237;28;45553;-56
2022/05/12 07:57:50;;;;;;;;;4.50;2.50;;;;;21.83;38.13;101567.09;5076798;27;46096;-58
2022/05/12 08:00:16;;;;;;;;;5.75;3.00;;;;;21.89;38.25;101566.78;5076951;28;45235;-57
2022/05/12 08:02:42;;;;;;;;;6.50;3.00;;;;;21.93;38.34;101570.97;5064167;27;45414;-58
2022/05/12 08:05:07;;;;;;;;;4.00;3.00;;;;;21.99;37.71;101568.97;5057064;28;45370;-57
2022/05/12 08:07:32;;;;;;;;;5.00;3.75;;;;;22.02;37.89;101566.16;5056207;28;45434;-56
2022/05/12 08:10:00;;;;;;;;;2.00;2.00;;;;;22.06;38.07;101573.00;5056537;28;45333;-56
2022/05/12 08:12:26;;;;;;;;;4.00;2.75;;;;;22.09;37.89;101573.69;5056341;28;45394;-61
2022/05/12 08:14:53;;;;;;;;;6.50;3.00;;;;;22.11;38.12;101576.25;5056425;28;45540;-55
2022/05/12 08:17:18;;;;;;;;;3.75;3.25;;;;;22.16;37.59;101583.97;5056025;28;46199;-56
2022/05/12 08:19:43;;;;;;;;;3.25;2.50;;;;;22.19;37.76;101579.38;5056109;28;45318;-56
2022/05/12 08:22:09;;;;;;;;;3.25;3.00;;;;;22.23;37.80;101588.00;5056330;28;45322;-52
2022/05/12 08:24:34;;;;;;;;;2.25;2.25;;;;;22.26;37.61;101584.34;5056529;28;45292;-53
2022/05/12 08:27:00;;;;;;;;;2.00;2.00;;;;;22.28;37.16;101587.75;5055786;28;45285;-53
2022/05/12 08:29:25;;;;;;;;;3.00;3.00;;;;;22.32;37.16;101581.41;5056166;28;45319;-52
2022/05/12 08:31:50;;;;;;;;;4.00;2.75;;;;;22.33;37.32;101585.72;5056317;28;45746;-55
2022/05/12 08:34:16;;;;;;;;;4.25;2.75;;;;;22.36;36.91;101588.22;5056275;28;45528;-55
2022/05/12 08:36:41;;;;;;;;;3.25;3.00;;;;;22.38;36.81;101581.06;5056297;28;46324;-57
2022/05/12 08:39:07;;;;;;;;;3.00;3.00;;;;;22.39;36.88;101580.16;5056506;28;45145;-57
2022/05/12 08:41:46;;;;;;;;;3.50;2.25;;;;;22.42;36.89;101584.44;5056234;28;45295;-62
2022/05/12 08:44:16;;;;;;;;;2.00;2.00;;;;;22.42;36.81;101580.03;5065738;28;45377;-56
2022/05/12 08:46:49;;;;;;;;;2.00;2.00;;;;;22.47;36.81;101585.91;5076397;27;46114;-56
2022/05/12 08:49:28;;;;;;;;;4.75;3.00;;;;;22.49;36.47;101578.75;5076283;28;45816;-58
2022/05/12 08:52:21;;;;;;;;;3.50;3.50;;;;;22.53;37.08;101582.09;5076538;27;45346;-56
2022/05/12 08:54:55;;;;;;;;;3.75;2.00;;;;;22.57;36.57;101577.50;5076319;28;45620;-54
2022/05/12 08:57:37;;;;;;;;;3.75;3.00;;;;;22.58;36.75;101580.09;5075762;27;46378;-55
2022/05/12 09:00:11;;;;;;;;;2.25;1.75;;;;;22.60;36.67;101580.81;5076184;28;45763;-55
2022/05/12 09:02:57;;;;;;;;;3.00;3.00;;;;;22.61;36.49;101581.69;5075920;27;45512;-55
2022/05/12 09:05:28;;;;;;;;;2.25;2.00;;;;;22.63;36.52;101577.19;5076034;28;45298;-56
2022/05/12 09:08:27;;;;;;;;;2.00;2.00;;;;;22.65;36.45;101570.88;5075224;27;46213;-55
2022/05/12 09:11:01;;;;;;;;;2.00;2.00;;;;;22.66;36.52;101571.72;5075921;28;45419;-56
2022/05/12 09:13:44;;;;;;;;;3.25;2.75;;;;;22.67;36.39;101579.59;5076021;27;45431;-56
2022/05/12 09:16:31;;;;;;;;;4.75;3.25;;;;;22.65;36.42;101570.88;5076536;28;45390;-56
2022/05/12 09:18:59;;;;;;;;;7.25;3.00;;;;;22.65;36.60;101578.81;5075737;27;46352;-56
2022/05/12 09:21:36;;;;;;;;;1.00;1.00;;;;;22.64;35.64;101579.75;5075239;27;45261;-55
2022/05/12 09:24:07;;;;;;;;;2.00;1.25;;;;;22.66;36.45;101577.00;5075904;27;45250;-56
2022/05/12 09:26:38;;;;;;;;;6.00;2.75;;;;;22.67;36.49;101573.44;5076085;27;45468;-56
2022/05/12 09:29:23;;;;;;;;;2.00;2.00;;;;;22.67;36.58;101584.00;5075772;27;45981;-58
2022/05/12 09:31:55;;;;;;;;;6.00;5.75;;;;;22.67;36.49;101578.72;5075896;27;45451;-54
2022/05/12 09:34:24;;;;;;;;;4.25;3.75;;;;;22.67;36.25;101578.72;5077105;27;45325;-55
2022/05/12 09:36:50;;;;;;;;;4.00;4.00;;;;;22.67;36.69;101570.78;5079447;27;45475;-58
2022/05/12 09:39:37;;;;;;;;;5.00;3.75;;;;;22.69;36.35;101576.84;5076792;27;46164;-57
2022/05/12 09:42:03;;;;;;;;;5.00;3.25;;;;;22.68;35.86;101575.16;5078899;27;45391;-57
2022/05/12 09:44:32;;;;;;;;;3.50;3.50;;;;;22.64;35.88;101573.63;5079188;27;45214;-56
2022/05/12 09:47:17;;;;;;;;;3.50;3.50;;;;;22.64;35.88;101571.81;5077644;28;45670;-57
2022/05/12 09:49:46;;;;;;;;;5.25;4.00;;;;;22.63;35.75;101572.75;5079161;27;46256;-57
2022/05/12 09:52:31;;;;;;;;;4.00;4.00;;;;;22.64;36.11;101569.19;5079061;27;45467;-58
2022/05/12 09:55:15;;;;;;;;;2.75;2.00;;;;;22.65;36.08;101562.13;5074260;27;45477;-57
2022/05/12 09:57:56;;;;;;;;;2.00;2.00;;;;;22.66;35.99;101562.03;5079056;27;45547;-59
2022/05/12 10:00:30;;;;;;;;;3.25;2.25;;;;;22.68;35.85;101559.28;5078748;27;45357;-56
2022/05/12 10:09:31;;;;;;;;;3.00;3.00;;;;;22.67;35.73;101557.59;5016089;28;45399;-56
2022/05/12 10:12:02;;;;;;;;;5.00;4.00;;;;;22.66;35.75;101558.50;5007842;28;45531;-56
2022/05/12 10:14:49;;;;;;;;;4.75;4.25;;;;;22.66;35.85;101556.75;5056392;28;45462;-57
2022/05/12 10:17:32;;;;;;;;;5.00;4.50;;;;;22.66;35.70;101550.59;5038291;28;45537;-57
2022/05/12 10:20:11;;;;;;;;;3.75;3.50;;;;;22.65;36.08;101548.91;5038049;28;45360;-58
2022/05/12 10:22:44;;;;;;;;;4.25;3.75;;;;;22.63;36.32;101548.13;5049401;28;45380;-56
2022/05/12 10:25:56;;;;;;;;;4.75;4.75;;;;;22.64;36.02;101547.19;5077020;28;45823;-57
2022/05/12 10:28:49;;;;;;;;;3.50;3.00;;;;;22.64;36.09;101548.03;5078179;27;45319;-56
2022/05/12 10:31:22;;;;;;;;;3.00;3.00;;;;;22.66;36.20;101547.94;5073300;28;45497;-58
2022/05/12 10:33:48;;;;;;;;;4.00;2.75;;;;;22.68;36.19;101543.44;5057475;28;45513;-57
2022/05/12 10:36:34;;;;;;;;;3.00;2.75;;;;;22.70;36.16;101546.84;5073750;28;45839;-55
2022/05/12 10:39:04;;;;;;;;;5.00;3.25;;;;;22.73;36.20;101551.13;5058125;28;45307;-55
2022/05/12 10:41:45;;;;;;;;;3.75;2.50;;;;;22.73;36.13;101541.41;5057916;28;45318;-56
2022/05/12 10:44:17;;;;;;;;;3.50;2.25;;;;;22.76;36.32;101551.84;5057828;28;45361;-55
2022/05/12 10:47:08;;;;;;;;;3.50;3.00;;;;;22.79;36.27;101548.16;5057953;28;45874;-55
2022/05/12 10:50:16;;;;;;;;;7.75;4.00;;;;;22.82;36.31;101551.50;5056272;28;45371;-55
2022/05/12 10:53:08;;;;;;;;;6.50;3.00;;;;;22.84;36.07;101538.19;5043576;28;45665;-55
2022/05/12 10:55:36;;;;;;;;;2.00;2.00;;;;;22.88;36.35;101538.88;5057584;28;46101;-55
2022/05/12 10:58:01;;;;;;;;;3.75;3.00;;;;;22.90;36.25;101537.88;5057815;28;45791;-55
2022/05/12 11:01:05;;;;;;;;;4.67;4.00;;;;;22.93;36.26;101542.13;5057957;28;45386;-55
2022/05/12 11:03:40;;;;;;;;;4.50;2.50;;;;;22.97;36.23;101538.38;5057811;28;45466;-55
2022/05/12 11:06:12;;;;;;;;;4.00;3.00;;;;;22.98;36.31;101537.47;5057536;28;46293;-56
2022/05/12 11:08:47;;;;;;;;;5.00;4.00;;;;;23.01;36.27;101534.63;5057626;28;45709;-56
2022/05/12 11:11:17;;;;;;;;;4.50;3.00;;;;;23.01;36.06;101535.50;5057600;28;45335;-56
2022/05/12 11:13:53;;;;;;;;;2.25;2.25;;;;;23.03;36.35;101534.56;5073164;28;45279;-56
2022/05/12 11:16:26;;;;;;;;;4.00;3.25;;;;;23.03;36.34;101538.03;5057598;28;46304;-56
2022/05/12 11:19:18;;;;;;;;;3.25;2.00;;;;;23.06;36.36;101537.88;5057557;28;45827;-56
2022/05/12 11:21:53;;;;;;;;;7.00;3.00;;;;;23.08;36.34;101533.38;5057823;28;45377;-59
2022/05/12 11:24:30;;;;;;;;;2.25;2.25;;;;;23.08;36.66;101541.28;5057884;28;45452;-56
2022/05/12 11:27:20;;;;;;;;;3.75;3.75;;;;;23.10;36.19;101536.75;5057311;28;45419;-56
2022/05/12 11:30:07;;;;;;;;;2.00;2.00;;;;;23.13;36.17;101535.75;5057620;28;45241;-57
2022/05/12 11:32:50;;;;;;;;;5.75;4.00;;;;;23.13;36.15;101544.53;5057242;28;45390;-57
2022/05/12 11:35:21;;;;;;;;;3.50;2.00;;;;;23.09;36.14;101529.78;5057718;28;45238;-57
2022/05/12 11:38:02;;;;;;;;;4.50;2.25;;;;;23.15;36.50;101542.66;5057389;28;48129;-58
2022/05/12 11:40:49;;;;;;;;;4.50;3.00;;;;;23.16;36.55;101541.72;5057101;28;45729;-58
2022/05/12 11:46:23;;;;;;;;;2.25;2.25;;;;;23.17;36.40;101534.63;5057419;28;45311;-58
2022/05/12 11:49:03;;;;;;;;;2.25;2.25;;;;;23.16;36.57;101523.22;5057149;28;45946;-57
2022/05/12 11:51:50;;;;;;;;;2.00;2.00;;;;;23.17;36.29;101538.13;5056940;28;45879;-56
2022/05/12 11:54:54;;;;;;;;;2.75;2.75;;;;;23.19;36.33;101539.84;5057142;28;45429;-57
2022/05/12 11:57:32;;;;;;;;;3.75;3.25;;;;;23.19;36.56;101537.19;5049120;28;45410;-57
2022/05/12 12:00:08;;;;;;;;;3.00;3.00;;;;;23.18;36.59;101531.03;5056536;28;46265;-57